Maningrida, Australia
Current Conditions -  °F | °C
As of 8:00 AM on Monday 22 Dec 2014 (Local Time) from YPGV Reporting Station
Broken Clouds Broken Clouds  
Wind Chill: 88°   Ceiling: 30000
Heat Index: 100°   Visibility: 6mi
Dew Point: 77°   Wind: 5mph
Humidity: 70%   Direction: 90°E
Pressure: 29.8"   Gusts: NA
Location:  12.21°S, 134.3°E
Report Text: YPGV 212300Z 09004KT 9999 FEW020 BKN300 31/25 Q1009
Loading
Personal Weather Stations






























Interactive Weather Map New forecast layout! Learn more

10-Day Weather Forecast

Advertisements
Track Severe Weather on mobile